sensor_id;sensor_type;location;lat;lon;timestamp;temperature;humidity
14397;DHT22;50653;47.810;13.022;2023-05-29T00:02:08;17.60;69.00
14397;DHT22;50653;47.810;13.022;2023-05-29T00:04:34;17.60;68.40
14397;DHT22;50653;47.810;13.022;2023-05-29T00:07:00;17.70;68.90
14397;DHT22;50653;47.810;13.022;2023-05-29T00:09:26;17.60;68.30
14397;DHT22;50653;47.810;13.022;2023-05-29T00:11:51;17.50;69.70
14397;DHT22;50653;47.810;13.022;2023-05-29T00:14:19;17.70;68.70
14397;DHT22;50653;47.810;13.022;2023-05-29T00:16:48;17.30;68.40
14397;DHT22;50653;47.810;13.022;2023-05-29T00:19:15;17.40;69.00
14397;DHT22;50653;47.810;13.022;2023-05-29T00:21:45;17.50;68.60
14397;DHT22;50653;47.810;13.022;2023-05-29T00:24:16;17.50;69.00
14397;DHT22;50653;47.810;13.022;2023-05-29T00:26:42;17.50;68.10
14397;DHT22;50653;47.810;13.022;2023-05-29T00:29:08;17.50;69.10
14397;DHT22;50653;47.810;13.022;2023-05-29T00:31:34;17.40;68.20
14397;DHT22;50653;47.810;13.022;2023-05-29T00:34:01;17.20;68.50
14397;DHT22;50653;47.810;13.022;2023-05-29T00:36:26;17.00;68.80
14397;DHT22;50653;47.810;13.022;2023-05-29T00:38:54;17.10;70.20
14397;DHT22;50653;47.810;13.022;2023-05-29T00:41:19;17.30;70.20
14397;DHT22;50653;47.810;13.022;2023-05-29T00:43:45;17.50;70.60
14397;DHT22;50653;47.810;13.022;2023-05-29T00:46:13;17.30;71.20
14397;DHT22;50653;47.810;13.022;2023-05-29T00:48:39;17.50;71.50
14397;DHT22;50653;47.810;13.022;2023-05-29T00:51:06;17.50;72.10
14397;DHT22;50653;47.810;13.022;2023-05-29T00:53:34;17.50;73.20
14397;DHT22;50653;47.810;13.022;2023-05-29T00:56:00;17.60;73.50
14397;DHT22;50653;47.810;13.022;2023-05-29T00:58:27;17.00;74.00
14397;DHT22;50653;47.810;13.022;2023-05-29T01:00:53;16.60;75.00
14397;DHT22;50653;47.810;13.022;2023-05-29T01:03:20;17.00;75.50
14397;DHT22;50653;47.810;13.022;2023-05-29T01:05:48;17.20;75.60
14397;DHT22;50653;47.810;13.022;2023-05-29T01:08:14;16.70;76.60
14397;DHT22;50653;47.810;13.022;2023-05-29T01:10:40;16.80;76.90
14397;DHT22;50653;47.810;13.022;2023-05-29T01:13:30;17.00;77.40
14397;DHT22;50653;47.810;13.022;2023-05-29T01:16:13;17.20;76.60
14397;DHT22;50653;47.810;13.022;2023-05-29T01:18:54;16.60;77.70
14397;DHT22;50653;47.810;13.022;2023-05-29T01:21:36;16.60;77.90
14397;DHT22;50653;47.810;13.022;2023-05-29T01:24:26;16.90;76.90
14397;DHT22;50653;47.810;13.022;2023-05-29T01:29:29;16.60;76.20
14397;DHT22;50653;47.810;13.022;2023-05-29T01:31:57;16.50;76.10
14397;DHT22;50653;47.810;13.022;2023-05-29T01:34:24;16.30;76.20
14397;DHT22;50653;47.810;13.022;2023-05-29T01:36:49;16.80;77.50
14397;DHT22;50653;47.810;13.022;2023-05-29T01:39:16;16.90;76.50
14397;DHT22;50653;47.810;13.022;2023-05-29T01:41:44;16.90;76.60
14397;DHT22;50653;47.810;13.022;2023-05-29T01:44:11;16.90;76.50
14397;DHT22;50653;47.810;13.022;2023-05-29T01:46:39;16.90;76.20
14397;DHT22;50653;47.810;13.022;2023-05-29T01:49:06;17.00;75.80
14397;DHT22;50653;47.810;13.022;2023-05-29T01:51:33;17.00;75.40
14397;DHT22;50653;47.810;13.022;2023-05-29T01:53:59;17.00;75.10
14397;DHT22;50653;47.810;13.022;2023-05-29T01:56:27;16.80;74.90
14397;DHT22;50653;47.810;13.022;2023-05-29T01:58:55;16.50;75.80
14397;DHT22;50653;47.810;13.022;2023-05-29T02:01:22;16.40;76.50
14397;DHT22;50653;47.810;13.022;2023-05-29T02:03:48;16.50;76.50
14397;DHT22;50653;47.810;13.022;2023-05-29T02:06:14;16.80;76.80
14397;DHT22;50653;47.810;13.022;2023-05-29T02:08:40;16.70;77.40
14397;DHT22;50653;47.810;13.022;2023-05-29T02:11:05;16.40;79.40
14397;DHT22;50653;47.810;13.022;2023-05-29T02:13:31;16.00;81.60
14397;DHT22;50653;47.810;13.022;2023-05-29T02:15:57;15.80;82.90
14397;DHT22;50653;47.810;13.022;2023-05-29T02:18:24;15.50;83.10
14397;DHT22;50653;47.810;13.022;2023-05-29T02:20:49;16.00;83.10
14397;DHT22;50653;47.810;13.022;2023-05-29T02:23:21;16.20;82.60
14397;DHT22;50653;47.810;13.022;2023-05-29T02:25:47;16.20;82.10
14397;DHT22;50653;47.810;13.022;2023-05-29T02:28:13;16.30;82.00
14397;DHT22;50653;47.810;13.022;2023-05-29T02:30:39;15.90;81.90
14397;DHT22;50653;47.810;13.022;2023-05-29T02:33:05;16.10;81.60
14397;DHT22;50653;47.810;13.022;2023-05-29T02:35:33;16.10;80.50
14397;DHT22;50653;47.810;13.022;2023-05-29T02:37:59;16.20;80.20
14397;DHT22;50653;47.810;13.022;2023-05-29T02:40:24;16.00;79.60
14397;DHT22;50653;47.810;13.022;2023-05-29T02:42:50;15.70;80.20
14397;DHT22;50653;47.810;13.022;2023-05-29T02:45:17;15.80;79.70
14397;DHT22;50653;47.810;13.022;2023-05-29T02:47:42;15.90;79.40
14397;DHT22;50653;47.810;13.022;2023-05-29T02:50:08;15.90;79.70
14397;DHT22;50653;47.810;13.022;2023-05-29T02:52:35;15.50;80.20
14397;DHT22;50653;47.810;13.022;2023-05-29T02:55:03;15.50;80.30
14397;DHT22;50653;47.810;13.022;2023-05-29T02:57:30;15.90;81.10
14397;DHT22;50653;47.810;13.022;2023-05-29T02:59:55;16.00;80.10
14397;DHT22;50653;47.810;13.022;2023-05-29T03:02:21;15.80;80.90
14397;DHT22;50653;47.810;13.022;2023-05-29T03:04:47;15.70;81.40
14397;DHT22;50653;47.810;13.022;2023-05-29T03:07:16;16.10;81.10
14397;DHT22;50653;47.810;13.022;2023-05-29T03:09:42;16.10;81.10
14397;DHT22;50653;47.810;13.022;2023-05-29T03:12:09;16.20;81.00
14397;DHT22;50653;47.810;13.022;2023-05-29T03:14:34;15.40;82.40
14397;DHT22;50653;47.810;13.022;2023-05-29T03:17:07;15.80;83.00
14397;DHT22;50653;47.810;13.022;2023-05-29T03:19:33;15.30;83.70
14397;DHT22;50653;47.810;13.022;2023-05-29T03:21:59;15.30;85.60
14397;DHT22;50653;47.810;13.022;2023-05-29T03:24:25;15.50;85.50
14397;DHT22;50653;47.810;13.022;2023-05-29T03:26:51;15.40;84.80
14397;DHT22;50653;47.810;13.022;2023-05-29T03:29:17;15.30;86.10
14397;DHT22;50653;47.810;13.022;2023-05-29T03:31:44;15.70;84.70
14397;DHT22;50653;47.810;13.022;2023-05-29T03:34:12;15.60;84.00
14397;DHT22;50653;47.810;13.022;2023-05-29T03:36:41;15.80;84.00
14397;DHT22;50653;47.810;13.022;2023-05-29T03:39:08;15.60;84.30
14397;DHT22;50653;47.810;13.022;2023-05-29T03:41:33;15.60;84.10
14397;DHT22;50653;47.810;13.022;2023-05-29T03:43:59;15.60;83.90
14397;DHT22;50653;47.810;13.022;2023-05-29T03:46:27;15.30;84.20
14397;DHT22;50653;47.810;13.022;2023-05-29T03:48:53;15.40;84.70
14397;DHT22;50653;47.810;13.022;2023-05-29T03:51:20;15.30;84.00
14397;DHT22;50653;47.810;13.022;2023-05-29T03:53:48;15.30;84.90
14397;DHT22;50653;47.810;13.022;2023-05-29T03:56:14;15.40;84.20
14397;DHT22;50653;47.810;13.022;2023-05-29T03:58:40;15.10;83.70
14397;DHT22;50653;47.810;13.022;2023-05-29T04:01:07;15.50;83.70
14397;DHT22;50653;47.810;13.022;2023-05-29T04:03:33;15.50;82.80
14397;DHT22;50653;47.810;13.022;2023-05-29T04:06:00;15.50;83.30
14397;DHT22;50653;47.810;13.022;2023-05-29T04:08:26;15.60;83.10
14397;DHT22;50653;47.810;13.022;2023-05-29T04:10:52;15.60;82.40
14397;DHT22;50653;47.810;13.022;2023-05-29T04:13:20;15.60;82.00
14397;DHT22;50653;47.810;13.022;2023-05-29T04:15:46;15.00;83.40
14397;DHT22;50653;47.810;13.022;2023-05-29T04:18:13;14.30;87.40
14397;DHT22;50653;47.810;13.022;2023-05-29T04:20:39;14.90;86.90
14397;DHT22;50653;47.810;13.022;2023-05-29T04:23:05;15.50;85.20
14397;DHT22;50653;47.810;13.022;2023-05-29T04:25:31;15.80;83.80
14397;DHT22;50653;47.810;13.022;2023-05-29T04:27:57;15.90;83.30
14397;DHT22;50653;47.810;13.022;2023-05-29T04:30:27;16.00;82.80
14397;DHT22;50653;47.810;13.022;2023-05-29T04:32:54;16.00;82.50
14397;DHT22;50653;47.810;13.022;2023-05-29T04:35:21;16.00;82.40
14397;DHT22;50653;47.810;13.022;2023-05-29T04:37:56;16.00;82.20
14397;DHT22;50653;47.810;13.022;2023-05-29T04:40:25;16.00;82.90
14397;DHT22;50653;47.810;13.022;2023-05-29T04:42:52;16.00;83.10
14397;DHT22;50653;47.810;13.022;2023-05-29T04:45:21;15.90;83.70
14397;DHT22;50653;47.810;13.022;2023-05-29T04:47:50;15.10;86.30
14397;DHT22;50653;47.810;13.022;2023-05-29T04:50:18;14.50;90.00
14397;DHT22;50653;47.810;13.022;2023-05-29T04:52:43;14.20;91.80
14397;DHT22;50653;47.810;13.022;2023-05-29T04:55:10;14.30;92.50
14397;DHT22;50653;47.810;13.022;2023-05-29T04:57:36;14.50;92.90
14397;DHT22;50653;47.810;13.022;2023-05-29T05:00:03;14.90;92.10
14397;DHT22;50653;47.810;13.022;2023-05-29T05:02:49;15.00;91.40
14397;DHT22;50653;47.810;13.022;2023-05-29T05:05:16;15.10;91.00
14397;DHT22;50653;47.810;13.022;2023-05-29T05:07:42;15.20;90.90
14397;DHT22;50653;47.810;13.022;2023-05-29T05:10:08;15.70;90.30
14397;DHT22;50653;47.810;13.022;2023-05-29T05:12:35;15.90;89.20
14397;DHT22;50653;47.810;13.022;2023-05-29T05:15:01;16.00;89.40
14397;DHT22;50653;47.810;13.022;2023-05-29T05:17:28;15.90;89.20
14397;DHT22;50653;47.810;13.022;2023-05-29T05:19:54;16.00;88.80
14397;DHT22;50653;47.810;13.022;2023-05-29T05:22:21;16.10;88.20
14397;DHT22;50653;47.810;13.022;2023-05-29T05:24:48;16.10;88.30
14397;DHT22;50653;47.810;13.022;2023-05-29T05:27:14;15.90;90.00
14397;DHT22;50653;47.810;13.022;2023-05-29T05:29:40;16.00;89.60
14397;DHT22;50653;47.810;13.022;2023-05-29T05:32:06;16.10;89.60
14397;DHT22;50653;47.810;13.022;2023-05-29T05:34:33;16.00;90.80
14397;DHT22;50653;47.810;13.022;2023-05-29T05:36:58;15.90;91.70
14397;DHT22;50653;47.810;13.022;2023-05-29T05:39:24;16.00;91.60
14397;DHT22;50653;47.810;13.022;2023-05-29T05:41:51;16.00;91.50
14397;DHT22;50653;47.810;13.022;2023-05-29T05:44:31;16.00;92.20
14397;DHT22;50653;47.810;13.022;2023-05-29T05:47:05;16.20;91.80
14397;DHT22;50653;47.810;13.022;2023-05-29T05:49:31;16.30;91.70
14397;DHT22;50653;47.810;13.022;2023-05-29T05:51:57;16.30;91.50
14397;DHT22;50653;47.810;13.022;2023-05-29T05:54:22;16.30;91.80
14397;DHT22;50653;47.810;13.022;2023-05-29T05:56:48;16.40;91.50
14397;DHT22;50653;47.810;13.022;2023-05-29T05:59:17;16.40;91.60
14397;DHT22;50653;47.810;13.022;2023-05-29T06:01:43;16.50;91.70
14397;DHT22;50653;47.810;13.022;2023-05-29T06:04:09;16.50;91.50
14397;DHT22;50653;47.810;13.022;2023-05-29T06:06:35;16.60;91.50
14397;DHT22;50653;47.810;13.022;2023-05-29T06:09:01;16.60;91.20
14397;DHT22;50653;47.810;13.022;2023-05-29T06:11:27;16.70;91.10
14397;DHT22;50653;47.810;13.022;2023-05-29T06:13:54;16.60;91.10
14397;DHT22;50653;47.810;13.022;2023-05-29T06:16:23;16.70;91.60
14397;DHT22;50653;47.810;13.022;2023-05-29T06:18:50;16.70;91.80
14397;DHT22;50653;47.810;13.022;2023-05-29T06:21:17;16.60;92.20
14397;DHT22;50653;47.810;13.022;2023-05-29T06:23:50;16.70;91.80
14397;DHT22;50653;47.810;13.022;2023-05-29T06:26:16;16.70;91.60
14397;DHT22;50653;47.810;13.022;2023-05-29T06:28:42;16.70;91.60
14397;DHT22;50653;47.810;13.022;2023-05-29T06:31:07;16.70;91.80
14397;DHT22;50653;47.810;13.022;2023-05-29T06:33:33;16.60;91.60
14397;DHT22;50653;47.810;13.022;2023-05-29T06:35:59;16.50;91.90
14397;DHT22;50653;47.810;13.022;2023-05-29T06:38:25;16.60;91.40
14397;DHT22;50653;47.810;13.022;2023-05-29T06:40:50;16.60;90.90
14397;DHT22;50653;47.810;13.022;2023-05-29T06:43:16;16.70;90.50
14397;DHT22;50653;47.810;13.022;2023-05-29T06:45:46;16.70;89.90
14397;DHT22;50653;47.810;13.022;2023-05-29T06:48:12;16.60;89.40
14397;DHT22;50653;47.810;13.022;2023-05-29T06:50:39;16.70;89.40
14397;DHT22;50653;47.810;13.022;2023-05-29T06:53:24;16.90;89.30
14397;DHT22;50653;47.810;13.022;2023-05-29T06:55:54;17.00;88.90
14397;DHT22;50653;47.810;13.022;2023-05-29T06:58:20;17.00;89.60
14397;DHT22;50653;47.810;13.022;2023-05-29T07:00:46;17.10;88.40
14397;DHT22;50653;47.810;13.022;2023-05-29T07:03:21;17.20;88.40
14397;DHT22;50653;47.810;13.022;2023-05-29T07:05:47;17.20;88.00
14397;DHT22;50653;47.810;13.022;2023-05-29T07:08:13;17.10;86.30
14397;DHT22;50653;47.810;13.022;2023-05-29T07:10:39;17.10;86.90
14397;DHT22;50653;47.810;13.022;2023-05-29T07:13:04;16.90;86.00
14397;DHT22;50653;47.810;13.022;2023-05-29T07:15:33;17.10;86.20
14397;DHT22;50653;47.810;13.022;2023-05-29T07:17:58;17.20;86.10
14397;DHT22;50653;47.810;13.022;2023-05-29T07:20:26;17.30;85.70
14397;DHT22;50653;47.810;13.022;2023-05-29T07:22:52;17.40;85.50
14397;DHT22;50653;47.810;13.022;2023-05-29T07:25:18;17.40;86.60
14397;DHT22;50653;47.810;13.022;2023-05-29T07:27:43;17.40;85.60
14397;DHT22;50653;47.810;13.022;2023-05-29T07:30:09;17.40;84.90
14397;DHT22;50653;47.810;13.022;2023-05-29T07:32:36;17.50;85.10
14397;DHT22;50653;47.810;13.022;2023-05-29T07:35:01;17.50;85.10
14397;DHT22;50653;47.810;13.022;2023-05-29T07:37:28;17.60;85.80
14397;DHT22;50653;47.810;13.022;2023-05-29T07:39:56;17.70;86.60
14397;DHT22;50653;47.810;13.022;2023-05-29T07:42:41;17.70;85.80
14397;DHT22;50653;47.810;13.022;2023-05-29T07:45:08;17.70;85.10
14397;DHT22;50653;47.810;13.022;2023-05-29T07:47:33;17.70;84.40
14397;DHT22;50653;47.810;13.022;2023-05-29T07:49:59;17.80;84.40
14397;DHT22;50653;47.810;13.022;2023-05-29T07:52:27;17.80;84.30
14397;DHT22;50653;47.810;13.022;2023-05-29T07:54:54;17.90;84.80
14397;DHT22;50653;47.810;13.022;2023-05-29T07:57:23;17.90;84.80
14397;DHT22;50653;47.810;13.022;2023-05-29T07:59:51;17.90;86.70
14397;DHT22;50653;47.810;13.022;2023-05-29T08:02:17;17.90;85.90
14397;DHT22;50653;47.810;13.022;2023-05-29T08:04:57;18.00;84.70
14397;DHT22;50653;47.810;13.022;2023-05-29T08:07:23;18.00;82.50
14397;DHT22;50653;47.810;13.022;2023-05-29T08:09:49;18.00;82.30
14397;DHT22;50653;47.810;13.022;2023-05-29T08:12:15;18.00;82.80
14397;DHT22;50653;47.810;13.022;2023-05-29T08:14:42;18.00;84.40
14397;DHT22;50653;47.810;13.022;2023-05-29T08:17:08;18.10;84.30
14397;DHT22;50653;47.810;13.022;2023-05-29T08:19:34;18.10;84.80
14397;DHT22;50653;47.810;13.022;2023-05-29T08:21:59;18.20;86.30
14397;DHT22;50653;47.810;13.022;2023-05-29T08:24:25;18.20;85.80
14397;DHT22;50653;47.810;13.022;2023-05-29T08:26:50;18.20;86.10
14397;DHT22;50653;47.810;13.022;2023-05-29T08:29:16;18.30;87.40
14397;DHT22;50653;47.810;13.022;2023-05-29T08:31:42;18.40;87.80
14397;DHT22;50653;47.810;13.022;2023-05-29T08:34:07;18.50;88.60
14397;DHT22;50653;47.810;13.022;2023-05-29T08:36:35;18.50;87.60
14397;DHT22;50653;47.810;13.022;2023-05-29T08:39:01;18.40;86.50
14397;DHT22;50653;47.810;13.022;2023-05-29T08:41:54;18.50;88.10
14397;DHT22;50653;47.810;13.022;2023-05-29T08:44:22;18.60;87.20
14397;DHT22;50653;47.810;13.022;2023-05-29T08:46:55;18.60;87.40
14397;DHT22;50653;47.810;13.022;2023-05-29T08:49:21;18.60;87.50
14397;DHT22;50653;47.810;13.022;2023-05-29T08:51:57;18.70;87.40
14397;DHT22;50653;47.810;13.022;2023-05-29T08:54:26;18.80;87.70
14397;DHT22;50653;47.810;13.022;2023-05-29T08:56:51;18.80;88.30
14397;DHT22;50653;47.810;13.022;2023-05-29T08:59:17;18.90;86.90
14397;DHT22;50653;47.810;13.022;2023-05-29T09:01:43;19.00;84.90
14397;DHT22;50653;47.810;13.022;2023-05-29T09:04:09;19.00;84.80
14397;DHT22;50653;47.810;13.022;2023-05-29T09:06:35;19.10;86.20
14397;DHT22;50653;47.810;13.022;2023-05-29T09:09:00;19.30;86.40
14397;DHT22;50653;47.810;13.022;2023-05-29T09:11:26;19.20;86.60
14397;DHT22;50653;47.810;13.022;2023-05-29T09:13:52;19.30;87.40
14397;DHT22;50653;47.810;13.022;2023-05-29T09:16:18;19.20;87.30
14397;DHT22;50653;47.810;13.022;2023-05-29T09:18:44;19.40;85.00
14397;DHT22;50653;47.810;13.022;2023-05-29T09:21:26;19.40;85.10
14397;DHT22;50653;47.810;13.022;2023-05-29T09:23:54;19.40;84.20
14397;DHT22;50653;47.810;13.022;2023-05-29T09:26:21;19.50;83.10
14397;DHT22;50653;47.810;13.022;2023-05-29T09:28:48;19.90;83.00
14397;DHT22;50653;47.810;13.022;2023-05-29T09:31:15;19.80;75.10
14397;DHT22;50653;47.810;13.022;2023-05-29T09:33:49;19.90;72.20
14397;DHT22;50653;47.810;13.022;2023-05-29T09:36:24;20.00;68.70
14397;DHT22;50653;47.810;13.022;2023-05-29T09:38:50;19.90;69.40
14397;DHT22;50653;47.810;13.022;2023-05-29T09:41:23;19.90;69.20
14397;DHT22;50653;47.810;13.022;2023-05-29T09:43:50;19.90;68.40
14397;DHT22;50653;47.810;13.022;2023-05-29T09:46:16;20.00;67.10
14397;DHT22;50653;47.810;13.022;2023-05-29T09:48:45;19.90;68.40
14397;DHT22;50653;47.810;13.022;2023-05-29T09:51:23;20.00;69.50
14397;DHT22;50653;47.810;13.022;2023-05-29T09:53:49;20.10;70.00
14397;DHT22;50653;47.810;13.022;2023-05-29T09:56:24;20.10;68.70
14397;DHT22;50653;47.810;13.022;2023-05-29T09:58:51;20.30;65.90
14397;DHT22;50653;47.810;13.022;2023-05-29T10:01:19;20.40;64.60
14397;DHT22;50653;47.810;13.022;2023-05-29T10:03:45;20.40;63.30
14397;DHT22;50653;47.810;13.022;2023-05-29T10:06:15;20.30;63.10
14397;DHT22;50653;47.810;13.022;2023-05-29T10:08:50;20.30;60.40
14397;DHT22;50653;47.810;13.022;2023-05-29T10:11:20;20.40;60.30
14397;DHT22;50653;47.810;13.022;2023-05-29T10:13:51;20.40;59.90
14397;DHT22;50653;47.810;13.022;2023-05-29T10:16:20;20.70;59.20
14397;DHT22;50653;47.810;13.022;2023-05-29T10:18:53;20.70;59.40
14397;DHT22;50653;47.810;13.022;2023-05-29T10:21:26;20.60;59.30
14397;DHT22;50653;47.810;13.022;2023-05-29T10:23:53;20.60;59.00
14397;DHT22;50653;47.810;13.022;2023-05-29T10:26:22;20.50;59.40
14397;DHT22;50653;47.810;13.022;2023-05-29T10:35:12;20.90;58.70
14397;DHT22;50653;47.810;13.022;2023-05-29T10:38:09;20.90;59.20
14397;DHT22;50653;47.810;13.022;2023-05-29T10:40:35;21.00;58.80
14397;DHT22;50653;47.810;13.022;2023-05-29T10:43:01;20.90;56.70
14397;DHT22;50653;47.810;13.022;2023-05-29T10:50:54;21.10;56.70
14397;DHT22;50653;47.810;13.022;2023-05-29T10:53:25;21.10;55.70
14397;DHT22;50653;47.810;13.022;2023-05-29T10:55:52;21.10;55.30
14397;DHT22;50653;47.810;13.022;2023-05-29T10:58:19;21.00;55.30
14397;DHT22;50653;47.810;13.022;2023-05-29T11:00:46;21.20;56.40
14397;DHT22;50653;47.810;13.022;2023-05-29T11:03:20;21.20;55.30
14397;DHT22;50653;47.810;13.022;2023-05-29T11:06:03;21.20;55.50
14397;DHT22;50653;47.810;13.022;2023-05-29T11:08:45;21.30;55.90
14397;DHT22;50653;47.810;13.022;2023-05-29T11:13:54;21.40;55.60
14397;DHT22;50653;47.810;13.022;2023-05-29T11:16:38;21.40;55.60
14397;DHT22;50653;47.810;13.022;2023-05-29T11:19:07;21.40;54.90
14397;DHT22;50653;47.810;13.022;2023-05-29T11:24:24;21.40;54.70
14397;DHT22;50653;47.810;13.022;2023-05-29T11:26:55;21.30;55.60
14397;DHT22;50653;47.810;13.022;2023-05-29T11:29:23;21.40;55.30
14397;DHT22;50653;47.810;13.022;2023-05-29T11:31:54;21.50;55.20
14397;DHT22;50653;47.810;13.022;2023-05-29T11:34:22;21.50;55.20
14397;DHT22;50653;47.810;13.022;2023-05-29T11:36:48;21.50;54.00
14397;DHT22;50653;47.810;13.022;2023-05-29T11:39:16;21.40;53.70
14397;DHT22;50653;47.810;13.022;2023-05-29T11:41:42;21.40;54.10
14397;DHT22;50653;47.810;13.022;2023-05-29T11:44:08;21.40;54.00
14397;DHT22;50653;47.810;13.022;2023-05-29T11:46:34;21.50;54.10
14397;DHT22;50653;47.810;13.022;2023-05-29T11:49:00;21.50;53.60
14397;DHT22;50653;47.810;13.022;2023-05-29T11:51:26;21.70;53.00
14397;DHT22;50653;47.810;13.022;2023-05-29T11:53:52;21.50;53.00
14397;DHT22;50653;47.810;13.022;2023-05-29T11:56:24;21.60;53.50
14397;DHT22;50653;47.810;13.022;2023-05-29T11:58:51;21.60;53.90
14397;DHT22;50653;47.810;13.022;2023-05-29T12:01:17;21.70;52.40
14397;DHT22;50653;47.810;13.022;2023-05-29T12:03:44;21.90;52.30
14397;DHT22;50653;47.810;13.022;2023-05-29T12:06:10;21.80;51.00
14397;DHT22;50653;47.810;13.022;2023-05-29T12:08:37;21.90;51.50
14397;DHT22;50653;47.810;13.022;2023-05-29T12:11:03;22.00;51.00
14397;DHT22;50653;47.810;13.022;2023-05-29T12:13:29;22.00;50.50
14397;DHT22;50653;47.810;13.022;2023-05-29T12:15:57;22.10;51.20
14397;DHT22;50653;47.810;13.022;2023-05-29T12:18:25;22.10;51.30
14397;DHT22;50653;47.810;13.022;2023-05-29T12:20:57;22.20;51.00
14397;DHT22;50653;47.810;13.022;2023-05-29T12:23:23;22.20;51.20
14397;DHT22;50653;47.810;13.022;2023-05-29T12:25:51;22.20;49.60
14397;DHT22;50653;47.810;13.022;2023-05-29T12:28:18;22.10;50.60
14397;DHT22;50653;47.810;13.022;2023-05-29T12:30:45;22.20;49.10
14397;DHT22;50653;47.810;13.022;2023-05-29T12:33:33;22.20;50.30
14397;DHT22;50653;47.810;13.022;2023-05-29T12:36:06;22.30;50.40
14397;DHT22;50653;47.810;13.022;2023-05-29T12:38:46;22.30;50.00
14397;DHT22;50653;47.810;13.022;2023-05-29T12:41:25;22.30;49.70
14397;DHT22;50653;47.810;13.022;2023-05-29T12:43:55;22.50;49.50
14397;DHT22;50653;47.810;13.022;2023-05-29T12:46:22;22.50;48.40
14397;DHT22;50653;47.810;13.022;2023-05-29T12:48:48;22.40;48.20
14397;DHT22;50653;47.810;13.022;2023-05-29T12:51:17;22.50;47.30
14397;DHT22;50653;47.810;13.022;2023-05-29T12:53:43;22.60;46.40
14397;DHT22;50653;47.810;13.022;2023-05-29T12:56:09;22.50;45.50
14397;DHT22;50653;47.810;13.022;2023-05-29T12:58:34;22.50;44.70
14397;DHT22;50653;47.810;13.022;2023-05-29T13:01:00;22.50;44.80
14397;DHT22;50653;47.810;13.022;2023-05-29T13:03:26;22.50;45.40
14397;DHT22;50653;47.810;13.022;2023-05-29T13:05:52;22.50;46.70
14397;DHT22;50653;47.810;13.022;2023-05-29T13:08:21;22.50;47.80
14397;DHT22;50653;47.810;13.022;2023-05-29T13:10:46;22.60;46.50
14397;DHT22;50653;47.810;13.022;2023-05-29T13:13:12;22.80;46.60
14397;DHT22;50653;47.810;13.022;2023-05-29T13:15:38;22.90;46.60
14397;DHT22;50653;47.810;13.022;2023-05-29T13:18:05;22.70;47.00
14397;DHT22;50653;47.810;13.022;2023-05-29T13:20:31;22.80;46.60
14397;DHT22;50653;47.810;13.022;2023-05-29T13:22:57;22.80;46.30
14397;DHT22;50653;47.810;13.022;2023-05-29T13:25:23;22.90;46.50
14397;DHT22;50653;47.810;13.022;2023-05-29T13:27:51;22.90;45.80
14397;DHT22;50653;47.810;13.022;2023-05-29T13:30:17;23.00;45.60
14397;DHT22;50653;47.810;13.022;2023-05-29T13:32:43;23.00;46.10
14397;DHT22;50653;47.810;13.022;2023-05-29T13:35:09;23.00;45.30
14397;DHT22;50653;47.810;13.022;2023-05-29T13:37:38;23.10;45.50
14397;DHT22;50653;47.810;13.022;2023-05-29T13:40:06;23.30;43.90
14397;DHT22;50653;47.810;13.022;2023-05-29T13:42:34;23.20;45.10
14397;DHT22;50653;47.810;13.022;2023-05-29T13:45:00;23.10;45.70
14397;DHT22;50653;47.810;13.022;2023-05-29T13:47:25;23.00;44.40
14397;DHT22;50653;47.810;13.022;2023-05-29T13:49:56;23.00;45.40
14397;DHT22;50653;47.810;13.022;2023-05-29T13:52:22;22.90;44.60
14397;DHT22;50653;47.810;13.022;2023-05-29T13:54:48;23.10;44.40
14397;DHT22;50653;47.810;13.022;2023-05-29T13:57:13;23.30;43.50
14397;DHT22;50653;47.810;13.022;2023-05-29T13:59:39;23.30;43.50
14397;DHT22;50653;47.810;13.022;2023-05-29T14:02:05;23.40;45.40
14397;DHT22;50653;47.810;13.022;2023-05-29T14:04:31;23.50;43.50
14397;DHT22;50653;47.810;13.022;2023-05-29T14:06:57;23.30;43.10
14397;DHT22;50653;47.810;13.022;2023-05-29T14:09:23;23.30;43.90
14397;DHT22;50653;47.810;13.022;2023-05-29T14:11:54;23.50;43.20
14397;DHT22;50653;47.810;13.022;2023-05-29T14:14:20;23.50;42.70
14397;DHT22;50653;47.810;13.022;2023-05-29T14:16:46;23.60;42.30
14397;DHT22;50653;47.810;13.022;2023-05-29T14:19:11;23.60;40.60
14397;DHT22;50653;47.810;13.022;2023-05-29T14:21:37;23.50;41.10
14397;DHT22;50653;47.810;13.022;2023-05-29T14:24:02;23.60;40.90
14397;DHT22;50653;47.810;13.022;2023-05-29T14:26:28;23.70;41.80
14397;DHT22;50653;47.810;13.022;2023-05-29T14:28:54;23.70;42.50
14397;DHT22;50653;47.810;13.022;2023-05-29T14:31:20;23.70;41.80
14397;DHT22;50653;47.810;13.022;2023-05-29T14:33:45;23.70;41.20
14397;DHT22;50653;47.810;13.022;2023-05-29T14:36:11;23.80;41.40
14397;DHT22;50653;47.810;13.022;2023-05-29T14:38:38;23.80;42.40
14397;DHT22;50653;47.810;13.022;2023-05-29T14:41:03;23.70;40.40
14397;DHT22;50653;47.810;13.022;2023-05-29T14:43:29;23.80;39.60
14397;DHT22;50653;47.810;13.022;2023-05-29T14:45:55;23.80;39.90
14397;DHT22;50653;47.810;13.022;2023-05-29T14:48:20;23.90;40.20
14397;DHT22;50653;47.810;13.022;2023-05-29T14:50:46;23.80;41.70
14397;DHT22;50653;47.810;13.022;2023-05-29T14:53:12;23.90;41.40
14397;DHT22;50653;47.810;13.022;2023-05-29T14:55:37;24.00;41.20
14397;DHT22;50653;47.810;13.022;2023-05-29T14:58:04;24.00;41.50
14397;DHT22;50653;47.810;13.022;2023-05-29T15:00:30;24.10;41.60
14397;DHT22;50653;47.810;13.022;2023-05-29T15:02:56;24.00;40.80
14397;DHT22;50653;47.810;13.022;2023-05-29T15:05:25;24.30;40.60
14397;DHT22;50653;47.810;13.022;2023-05-29T15:07:51;24.30;39.50
14397;DHT22;50653;47.810;13.022;2023-05-29T15:10:17;24.40;39.90
14397;DHT22;50653;47.810;13.022;2023-05-29T15:12:45;24.60;39.80
14397;DHT22;50653;47.810;13.022;2023-05-29T15:15:11;24.80;39.50
14397;DHT22;50653;47.810;13.022;2023-05-29T15:17:37;25.00;39.70
14397;DHT22;50653;47.810;13.022;2023-05-29T15:20:04;25.30;39.90
14397;DHT22;50653;47.810;13.022;2023-05-29T15:22:31;25.20;38.30
14397;DHT22;50653;47.810;13.022;2023-05-29T15:24:56;25.40;38.70
14397;DHT22;50653;47.810;13.022;2023-05-29T15:27:22;25.90;39.70
14397;DHT22;50653;47.810;13.022;2023-05-29T15:29:48;26.10;39.30
14397;DHT22;50653;47.810;13.022;2023-05-29T15:32:13;26.30;38.50
14397;DHT22;50653;47.810;13.022;2023-05-29T15:34:39;25.80;39.30
14397;DHT22;50653;47.810;13.022;2023-05-29T15:37:06;25.50;39.20
14397;DHT22;50653;47.810;13.022;2023-05-29T15:39:31;25.30;39.50